createdAt,value
2022-11-16T00:01:02.893Z,7.00
2022-11-16T00:03:33.205Z,6.47
2022-11-16T00:06:05.028Z,5.72
2022-11-16T00:08:37.305Z,6.78
2022-11-16T00:11:07.687Z,5.22
2022-11-16T00:13:39.256Z,5.90
2022-11-16T00:16:09.225Z,5.68
2022-11-16T00:18:38.181Z,6.00
2022-11-16T00:21:07.243Z,6.88
2022-11-16T00:23:38.832Z,6.45
2022-11-16T00:26:08.347Z,6.03
2022-11-16T00:28:38.591Z,6.07
2022-11-16T00:31:08.525Z,6.00
2022-11-16T00:33:37.355Z,6.25
2022-11-16T00:36:07.561Z,5.47
2022-11-16T00:38:36.458Z,7.20
2022-11-16T00:41:05.607Z,6.22
2022-11-16T00:43:34.337Z,6.03
2022-11-16T00:46:04.847Z,6.97
2022-11-16T00:48:34.324Z,6.38
2022-11-16T00:51:03.749Z,6.50
2022-11-16T00:53:32.164Z,5.65
2022-11-16T00:56:00.647Z,6.85
2022-11-16T00:58:28.950Z,6.22
2022-11-16T01:00:57.574Z,6.22
2022-11-16T01:03:27.315Z,6.22
2022-11-16T01:06:02.292Z,5.90
2022-11-16T01:08:30.698Z,6.47
2022-11-16T01:11:20.243Z,5.90
2022-11-16T01:13:49.528Z,6.15
2022-11-16T01:16:19.239Z,5.03
2022-11-16T01:18:52.118Z,6.10
2022-11-16T01:21:21.221Z,6.03
2022-11-16T01:23:49.729Z,5.97
2022-11-16T01:26:18.326Z,6.15
2022-11-16T01:28:47.269Z,7.10
2022-11-16T01:31:16.084Z,6.38
2022-11-16T01:33:44.682Z,5.32
2022-11-16T01:36:18.586Z,5.40
2022-11-16T01:38:49.036Z,5.00
2022-11-16T01:41:22.722Z,5.65
2022-11-16T01:43:54.428Z,5.15
2022-11-16T01:46:23.554Z,5.63
2022-11-16T01:48:56.071Z,6.15
2022-11-16T01:51:26.583Z,5.22
2022-11-16T01:53:55.563Z,5.28
2022-11-16T01:56:26.508Z,5.72
2022-11-16T01:58:55.600Z,5.70
2022-11-16T02:01:25.283Z,5.13
2022-11-16T02:03:53.942Z,6.18
2022-11-16T02:06:34.178Z,5.75
2022-11-16T02:09:42.477Z,6.05
2022-11-16T02:12:28.035Z,6.43
2022-11-16T02:15:15.375Z,5.85
2022-11-16T02:17:51.045Z,6.40
2022-11-16T02:20:48.917Z,5.75
2022-11-16T02:23:46.338Z,5.53
2022-11-16T02:26:30.909Z,5.90
2022-11-16T02:29:17.573Z,6.03
2022-11-16T02:31:52.402Z,6.47
2022-11-16T02:34:25.138Z,6.65
2022-11-16T02:36:56.068Z,7.18
2022-11-16T02:39:30.447Z,5.53
2022-11-16T02:42:01.453Z,6.93
2022-11-16T02:44:35.076Z,7.35
2022-11-16T02:47:06.774Z,6.63
2022-11-16T02:49:37.945Z,6.65
2022-11-16T02:52:08.168Z,6.85
2022-11-16T02:54:36.918Z,7.05
2022-11-16T02:57:30.028Z,6.57
2022-11-16T03:00:00.870Z,7.55
2022-11-16T03:02:35.388Z,8.05
2022-11-16T03:05:09.236Z,6.25
2022-11-16T03:07:45.596Z,7.07
2022-11-16T03:10:35.064Z,6.68
2022-11-16T03:13:04.088Z,7.90
2022-11-16T03:15:37.762Z,7.03
2022-11-16T03:18:09.621Z,7.82
2022-11-16T03:20:40.229Z,7.68
2022-11-16T03:23:11.916Z,7.82
2022-11-16T03:25:44.509Z,8.18
2022-11-16T03:28:17.688Z,8.30
2022-11-16T03:30:54.180Z,9.57
2022-11-16T03:33:25.996Z,8.85
2022-11-16T03:35:58.245Z,8.63
2022-11-16T03:38:28.774Z,7.53
2022-11-16T03:41:01.014Z,9.15
2022-11-16T03:43:29.795Z,8.25
2022-11-16T03:45:59.717Z,9.20
2022-11-16T03:48:35.386Z,8.73
2022-11-16T03:51:05.151Z,8.45
2022-11-16T03:53:33.561Z,8.32
2022-11-16T03:56:01.842Z,8.15
2022-11-16T03:58:30.455Z,8.95
2022-11-16T04:01:00.350Z,8.15
2022-11-16T04:03:28.594Z,8.15
2022-11-16T04:06:14.405Z,8.93
2022-11-16T04:09:00.225Z,7.85
2022-11-16T04:11:46.060Z,8.63
2022-11-16T04:14:33.787Z,9.07
2022-11-16T04:17:21.212Z,8.60
2022-11-16T04:20:06.780Z,9.02
2022-11-16T04:22:58.290Z,8.98
2022-11-16T04:25:32.316Z,10.18
2022-11-16T04:30:58.351Z,9.50
2022-11-16T04:33:46.502Z,10.73
2022-11-16T04:36:32.279Z,9.40
2022-11-16T04:39:00.739Z,10.55
2022-11-16T04:41:48.082Z,10.98
2022-11-16T04:44:16.855Z,8.80
2022-11-16T04:47:02.453Z,11.18
2022-11-16T04:49:32.503Z,9.75
2022-11-16T04:52:01.145Z,10.05
2022-11-16T04:54:30.038Z,9.68
2022-11-16T04:56:58.735Z,10.50
2022-11-16T04:59:28.590Z,11.13
2022-11-16T05:02:12.082Z,11.57
2022-11-16T05:04:44.339Z,11.03
2022-11-16T05:07:15.549Z,9.40
2022-11-16T05:09:45.577Z,9.93
2022-11-16T05:12:16.250Z,10.27
2022-11-16T05:14:45.515Z,10.75
2022-11-16T05:17:15.133Z,9.73
2022-11-16T05:20:02.175Z,9.85
2022-11-16T05:22:31.082Z,9.45
2022-11-16T05:24:59.673Z,11.93
2022-11-16T05:27:29.662Z,10.10
2022-11-16T05:29:58.162Z,11.32
2022-11-16T05:32:27.686Z,10.13
2022-11-16T05:34:57.692Z,11.02
2022-11-16T05:37:27.310Z,10.30
2022-11-16T05:39:57.178Z,10.27
2022-11-16T05:42:27.460Z,10.15
2022-11-16T05:44:56.181Z,10.90
2022-11-16T05:47:24.609Z,12.13
2022-11-16T05:49:53.025Z,10.73
2022-11-16T05:52:23.365Z,10.70
2022-11-16T05:54:51.823Z,9.95
2022-11-16T05:57:21.455Z,10.07
2022-11-16T05:59:49.839Z,10.55
2022-11-16T06:02:18.317Z,10.02
2022-11-16T06:04:46.727Z,9.45
2022-11-16T06:07:16.466Z,11.18
2022-11-16T06:09:46.547Z,9.82
2022-11-16T06:12:15.023Z,11.25
2022-11-16T06:14:43.395Z,10.40
2022-11-16T06:17:14.831Z,10.80
2022-11-16T06:19:43.118Z,10.43
2022-11-16T06:22:11.495Z,11.68
2022-11-16T06:24:39.791Z,11.05
2022-11-16T06:27:09.618Z,10.70
2022-11-16T06:29:37.887Z,10.02
2022-11-16T06:32:06.886Z,9.23
2022-11-16T06:34:35.673Z,11.77
2022-11-16T06:37:05.889Z,10.75
2022-11-16T06:39:34.273Z,10.27
2022-11-16T06:42:02.355Z,10.50
2022-11-16T06:44:32.213Z,10.30
2022-11-16T06:47:00.789Z,10.38
2022-11-16T06:49:29.275Z,10.75
2022-11-16T06:51:57.756Z,10.90
2022-11-16T06:54:26.772Z,11.52
2022-11-16T06:56:54.962Z,10.55
2022-11-16T06:59:24.620Z,11.40
2022-11-16T07:01:54.732Z,11.32
2022-11-16T07:04:23.973Z,10.70
2022-11-16T07:06:52.785Z,11.07
2022-11-16T07:09:21.425Z,11.20
2022-11-16T07:11:49.749Z,10.45
2022-11-16T07:14:19.201Z,11.35
2022-11-16T07:16:48.295Z,11.07
2022-11-16T07:19:19.001Z,11.00
2022-11-16T07:21:47.647Z,10.02
2022-11-16T07:24:16.463Z,10.65
2022-11-16T07:26:45.611Z,10.75
2022-11-16T07:29:15.775Z,9.75
2022-11-16T07:31:44.311Z,9.68
2022-11-16T07:34:13.246Z,9.00
2022-11-16T07:37:36.828Z,10.07
2022-11-16T07:40:07.856Z,8.88
2022-11-16T07:42:36.885Z,10.50
2022-11-16T07:45:07.397Z,8.95
2022-11-16T07:47:39.322Z,10.40
2022-11-16T07:50:09.044Z,9.55
2022-11-16T07:52:38.398Z,9.50
2022-11-16T07:55:10.929Z,11.15
2022-11-16T07:57:39.464Z,10.25
2022-11-16T08:00:10.090Z,9.93
2022-11-16T08:02:38.580Z,8.10
2022-11-16T08:05:09.203Z,8.63
2022-11-16T08:07:38.348Z,8.00
2022-11-16T08:10:09.975Z,8.95
2022-11-16T08:12:38.405Z,8.05
2022-11-16T08:15:07.899Z,8.38
2022-11-16T08:17:36.587Z,7.90
2022-11-16T08:20:05.844Z,7.45
2022-11-16T08:22:34.327Z,7.70
2022-11-16T08:25:02.823Z,8.73
2022-11-16T08:27:33.098Z,8.57
2022-11-16T08:30:03.236Z,7.13
2022-11-16T08:32:31.553Z,7.07
2022-11-16T08:35:02.762Z,8.75
2022-11-16T08:37:32.114Z,8.88
2022-11-16T08:40:00.994Z,7.28
2022-11-16T08:42:29.834Z,7.85
2022-11-16T08:45:00.519Z,7.28
2022-11-16T08:47:28.901Z,7.38
2022-11-16T08:49:57.698Z,6.57
2022-11-16T08:52:26.598Z,7.45
2022-11-16T08:54:55.383Z,6.85
2022-11-16T08:57:25.056Z,7.40
2022-11-16T08:59:53.561Z,6.50
2022-11-16T09:02:25.779Z,6.07
2022-11-16T09:04:54.238Z,6.43
2022-11-16T09:07:23.578Z,6.60
2022-11-16T09:09:52.146Z,7.50
2022-11-16T09:12:20.733Z,6.43
2022-11-16T09:14:49.941Z,7.20
2022-11-16T09:17:22.905Z,6.45
2022-11-16T09:19:54.115Z,7.20
2022-11-16T09:22:22.337Z,4.78
2022-11-16T09:24:51.025Z,6.13
2022-11-16T09:27:20.340Z,6.47
2022-11-16T09:29:48.977Z,7.13
2022-11-16T09:32:18.351Z,7.63
2022-11-16T09:34:47.283Z,7.05
2022-11-16T09:37:20.080Z,7.28
2022-11-16T09:39:48.960Z,6.82
2022-11-16T09:42:30.299Z,7.47
2022-11-16T09:45:08.825Z,7.25
2022-11-16T09:47:46.903Z,6.63
2022-11-16T09:50:35.872Z,8.30
2022-11-16T09:53:27.468Z,7.18
2022-11-16T09:56:00.683Z,6.95
2022-11-16T09:58:34.031Z,7.13
2022-11-16T10:01:09.428Z,7.43
2022-11-16T10:03:45.356Z,6.97
2022-11-16T10:06:22.145Z,6.93
2022-11-16T10:08:53.371Z,7.00
2022-11-16T10:11:36.820Z,8.13
2022-11-16T10:14:21.421Z,7.30
2022-11-16T10:16:57.795Z,7.70
2022-11-16T10:19:36.076Z,6.55
2022-11-16T10:22:17.250Z,8.15
2022-11-16T10:24:58.184Z,7.57
2022-11-16T10:27:48.801Z,7.57
2022-11-16T10:30:19.096Z,7.53
2022-11-16T10:32:52.391Z,7.70
2022-11-16T10:35:27.336Z,7.78
2022-11-16T10:37:59.186Z,6.55
2022-11-16T10:40:32.379Z,7.13
2022-11-16T10:43:12.681Z,7.60
2022-11-16T10:45:44.910Z,7.55
2022-11-16T10:48:21.075Z,7.38
2022-11-16T10:50:51.909Z,6.15
2022-11-16T10:53:34.357Z,7.18
2022-11-16T10:56:18.159Z,7.22
2022-11-16T10:58:53.105Z,6.77
2022-11-16T11:01:31.289Z,7.18
2022-11-16T11:04:20.780Z,6.55
2022-11-16T11:06:53.077Z,6.88
2022-11-16T11:09:28.288Z,6.75
2022-11-16T11:12:23.972Z,7.47
2022-11-16T11:15:06.481Z,8.18
2022-11-16T11:17:37.118Z,6.63
2022-11-16T11:20:07.795Z,7.13
2022-11-16T11:22:44.446Z,6.90
2022-11-16T11:25:21.817Z,7.32
2022-11-16T11:27:53.006Z,6.32
2022-11-16T11:30:22.676Z,6.45
2022-11-16T11:32:53.188Z,6.50
2022-11-16T11:35:26.445Z,5.72
2022-11-16T11:38:02.158Z,7.50
2022-11-16T11:40:33.914Z,6.75
2022-11-16T11:43:05.683Z,7.20
2022-11-16T11:45:40.320Z,6.47
2022-11-16T11:48:31.247Z,6.85
2022-11-16T11:51:03.982Z,7.00
2022-11-16T11:53:48.659Z,6.80
2022-11-16T11:56:17.654Z,9.80
2022-11-16T11:58:49.635Z,8.05
2022-11-16T12:02:09.114Z,8.43
2022-11-16T12:04:59.448Z,7.03
2022-11-16T12:07:41.893Z,6.95
2022-11-16T12:10:18.403Z,6.95
2022-11-16T12:13:01.727Z,6.78
2022-11-16T12:15:47.660Z,6.28
2022-11-16T12:18:34.827Z,6.28
2022-11-16T12:21:15.058Z,6.88
2022-11-16T12:24:02.480Z,5.68
2022-11-16T12:26:41.669Z,6.15
2022-11-16T12:29:25.732Z,6.10
2022-11-16T12:32:23.361Z,5.65
2022-11-16T12:35:01.898Z,7.35
2022-11-16T12:37:39.579Z,6.18
2022-11-16T12:40:32.330Z,6.63
2022-11-16T12:43:09.741Z,5.78
2022-11-16T12:45:59.857Z,5.95
2022-11-16T12:48:53.533Z,6.47
2022-11-16T12:51:34.261Z,6.63
2022-11-16T12:54:20.487Z,7.53
2022-11-16T12:56:56.698Z,6.90
2022-11-16T12:59:36.981Z,6.05
2022-11-16T13:02:17.338Z,6.15
2022-11-16T13:04:52.276Z,5.93
2022-11-16T13:07:26.299Z,6.45
2022-11-16T13:12:30.013Z,6.18
2022-11-16T13:15:01.949Z,6.30
2022-11-16T13:17:35.240Z,6.65
2022-11-16T13:20:24.189Z,6.95
2022-11-16T13:22:58.952Z,11.88
2022-11-16T13:25:32.353Z,8.25
2022-11-16T13:28:12.905Z,6.15
2022-11-16T13:30:50.928Z,5.40
2022-11-16T13:33:35.077Z,5.65
2022-11-16T13:36:37.163Z,5.00
2022-11-16T13:39:10.687Z,5.57
2022-11-16T13:41:41.702Z,6.07
2022-11-16T13:44:26.477Z,5.53
2022-11-16T13:46:59.979Z,5.53
2022-11-16T13:49:32.506Z,4.85
2022-11-16T13:52:22.021Z,4.75
2022-11-16T13:54:57.371Z,4.60
2022-11-16T13:57:28.873Z,4.78
2022-11-16T14:00:13.371Z,4.82
2022-11-16T14:02:44.078Z,4.38
2022-11-16T14:05:18.005Z,4.20
2022-11-16T14:07:50.205Z,5.20
2022-11-16T14:10:57.185Z,5.18
2022-11-16T14:13:45.899Z,5.38
2022-11-16T14:16:46.163Z,4.68
2022-11-16T14:19:54.591Z,4.72
2022-11-16T14:22:43.229Z,4.50
2022-11-16T14:25:25.170Z,4.63
2022-11-16T14:28:03.653Z,4.00
2022-11-16T14:30:49.163Z,4.57
2022-11-16T14:33:30.976Z,4.57
2022-11-16T14:36:03.471Z,4.20
2022-11-16T14:38:34.511Z,3.95
2022-11-16T14:41:06.121Z,4.47
2022-11-16T14:43:42.452Z,4.43
2022-11-16T14:46:24.122Z,4.57
2022-11-16T14:48:56.964Z,4.95
2022-11-16T14:51:33.834Z,4.78
2022-11-16T14:54:07.297Z,5.00
2022-11-16T14:56:36.315Z,5.38
2022-11-16T14:59:05.294Z,5.00
2022-11-16T15:01:38.321Z,4.93
2022-11-16T15:04:10.050Z,5.60
2022-11-16T15:06:44.300Z,6.10
2022-11-16T15:09:20.036Z,5.15
2022-11-16T15:12:08.692Z,4.68
2022-11-16T15:14:41.950Z,5.60
2022-11-16T15:17:30.099Z,4.87
2022-11-16T15:20:04.111Z,5.28
2022-11-16T15:22:44.114Z,4.40
2022-11-16T15:25:27.618Z,4.07
2022-11-16T15:27:58.390Z,4.50
2022-11-16T15:30:30.694Z,6.47
2022-11-16T15:33:18.839Z,4.45
2022-11-16T15:35:54.169Z,4.03
2022-11-16T15:38:39.429Z,5.43
2022-11-16T15:41:19.156Z,5.35
2022-11-16T15:44:14.100Z,4.55
2022-11-16T15:46:54.671Z,4.13
2022-11-16T15:49:46.136Z,4.45
2022-11-16T15:53:01.665Z,4.25
2022-11-16T15:56:00.728Z,3.50
2022-11-16T15:58:56.423Z,3.67
2022-11-16T16:01:47.097Z,3.65
2022-11-16T16:04:45.540Z,3.17
2022-11-16T16:07:54.223Z,2.92
2022-11-16T16:11:12.390Z,2.40
2022-11-16T16:14:19.740Z,2.92
2022-11-16T16:17:07.460Z,3.13
2022-11-16T16:19:56.319Z,2.88
2022-11-16T16:22:43.117Z,3.55
2022-11-16T16:28:25.924Z,4.80
2022-11-16T16:33:58.115Z,3.90
2022-11-16T16:36:53.450Z,4.22
2022-11-16T16:39:40.287Z,4.18
2022-11-16T16:42:31.235Z,5.07
2022-11-16T16:45:10.053Z,4.40
2022-11-16T16:47:53.279Z,4.25
2022-11-16T16:50:34.293Z,4.38
2022-11-16T16:53:23.177Z,5.50
2022-11-16T16:56:07.665Z,4.93
2022-11-16T17:01:47.160Z,4.78
2022-11-16T17:04:46.268Z,4.03
2022-11-16T17:07:38.377Z,4.65
2022-11-16T17:10:14.895Z,4.70
2022-11-16T17:13:17.350Z,4.70
2022-11-16T17:15:55.213Z,5.47
2022-11-16T17:18:43.751Z,6.40
2022-11-16T17:21:16.971Z,6.03
2022-11-16T17:23:54.434Z,6.57
2022-11-16T17:26:31.795Z,5.78
2022-11-16T17:29:33.239Z,6.10
2022-11-16T17:32:20.905Z,5.75
2022-11-16T17:34:52.616Z,6.75
2022-11-16T17:37:32.487Z,5.13
2022-11-16T17:40:03.485Z,5.15
2022-11-16T17:42:39.075Z,5.45
2022-11-16T17:45:16.783Z,5.65
2022-11-16T17:47:45.431Z,5.22
2022-11-16T17:50:42.833Z,4.95
2022-11-16T17:53:32.806Z,4.72
2022-11-16T17:56:23.942Z,4.38
2022-11-16T17:59:15.052Z,4.55
2022-11-16T18:02:04.220Z,4.80
2022-11-16T18:04:40.780Z,5.38
2022-11-16T18:07:25.600Z,5.32
2022-11-16T18:09:59.987Z,5.10
2022-11-16T18:12:44.194Z,4.95
2022-11-16T18:15:35.428Z,5.40
2022-11-16T18:18:29.748Z,5.97
2022-11-16T18:21:36.440Z,5.68
2022-11-16T18:24:25.160Z,6.03
2022-11-16T18:27:13.322Z,5.40
2022-11-16T18:29:49.651Z,6.82
2022-11-16T18:32:37.513Z,6.90
2022-11-16T18:35:29.326Z,6.32
2022-11-16T18:38:36.466Z,7.60
2022-11-16T18:41:27.702Z,6.22
2022-11-16T18:44:00.938Z,4.80
2022-11-16T18:46:42.016Z,5.18
2022-11-16T18:49:16.968Z,5.45
2022-11-16T18:55:18.811Z,5.03
2022-11-16T18:57:56.027Z,5.05
2022-11-16T19:00:55.050Z,5.80
2022-11-16T19:03:41.523Z,5.28
2022-11-16T19:06:21.210Z,4.32
2022-11-16T19:09:02.351Z,4.53
2022-11-16T19:11:58.172Z,4.60
2022-11-16T19:14:45.306Z,4.38
2022-11-16T19:17:26.526Z,4.40
2022-11-16T19:20:02.900Z,4.38
2022-11-16T19:22:38.355Z,5.70
2022-11-16T19:25:32.029Z,4.20
2022-11-16T19:28:13.520Z,4.28
2022-11-16T19:30:46.469Z,5.43
2022-11-16T19:33:35.035Z,4.82
2022-11-16T19:36:30.265Z,5.28
2022-11-16T19:39:06.533Z,7.35
2022-11-16T19:41:46.620Z,6.78
2022-11-16T19:44:31.552Z,6.00
2022-11-16T19:47:27.757Z,5.75
2022-11-16T19:50:01.336Z,5.07
2022-11-16T19:52:39.955Z,5.00
2022-11-16T19:55:40.222Z,5.55
2022-11-16T19:58:16.890Z,4.60
2022-11-16T20:00:49.552Z,5.38
2022-11-16T20:03:30.707Z,5.72
2022-11-16T20:06:36.957Z,5.43
2022-11-16T20:12:19.150Z,5.30
2022-11-16T20:15:04.876Z,5.20
2022-11-16T20:17:45.548Z,5.57
2022-11-16T20:20:28.842Z,5.18
2022-11-16T20:23:21.296Z,4.82
2022-11-16T20:26:04.933Z,5.43
2022-11-16T20:28:50.264Z,4.45
2022-11-16T20:31:29.031Z,5.70
2022-11-16T20:34:04.379Z,4.93
2022-11-16T20:36:54.621Z,5.95
2022-11-16T20:39:31.262Z,5.90
2022-11-16T20:42:16.497Z,5.80
2022-11-16T20:45:08.379Z,6.03
2022-11-16T20:47:50.658Z,5.07
2022-11-16T20:50:24.355Z,5.15
2022-11-16T20:53:01.389Z,6.00
2022-11-16T20:55:46.055Z,5.32
2022-11-16T20:58:27.805Z,5.47
2022-11-16T21:01:11.525Z,6.32
2022-11-16T21:04:09.361Z,6.10
2022-11-16T21:06:44.525Z,7.78
2022-11-16T21:09:28.956Z,6.35
2022-11-16T21:15:29.992Z,5.95
2022-11-16T21:18:09.695Z,6.97
2022-11-16T21:20:48.877Z,6.57
2022-11-16T21:23:39.165Z,6.78
2022-11-16T21:26:30.835Z,6.60
2022-11-16T21:29:08.929Z,7.13
2022-11-16T21:31:49.986Z,7.50
2022-11-16T21:34:38.858Z,6.85
2022-11-16T21:37:46.124Z,6.43
2022-11-16T21:40:31.515Z,6.60
2022-11-16T21:43:04.075Z,6.88
2022-11-16T21:45:52.635Z,6.35
2022-11-16T21:48:28.265Z,6.35
2022-11-16T21:51:17.045Z,6.80
2022-11-16T21:54:11.525Z,5.97
2022-11-16T21:57:05.106Z,6.03
2022-11-16T21:59:36.901Z,6.25
2022-11-16T22:02:31.008Z,6.75
2022-11-16T22:05:16.798Z,6.13
2022-11-16T22:07:56.292Z,6.13
2022-11-16T22:11:13.151Z,6.57
2022-11-16T22:13:48.476Z,6.95
2022-11-16T22:16:25.698Z,6.75
2022-11-16T22:19:09.516Z,5.78
2022-11-16T22:22:14.120Z,6.93
2022-11-16T22:24:52.851Z,5.20
2022-11-16T22:27:58.688Z,5.75
2022-11-16T22:30:35.989Z,5.68
2022-11-16T22:33:15.431Z,6.00
2022-11-16T22:36:01.513Z,6.50
2022-11-16T22:38:48.680Z,7.35
2022-11-16T22:41:30.188Z,6.53
2022-11-16T22:44:10.524Z,6.22
2022-11-16T22:46:48.289Z,6.13
2022-11-16T22:49:25.954Z,5.93
2022-11-16T22:52:06.744Z,6.00
2022-11-16T22:54:55.398Z,5.97
2022-11-16T23:00:53.162Z,6.82
2022-11-16T23:03:40.932Z,6.28
2022-11-16T23:06:12.282Z,7.03
2022-11-16T23:08:48.638Z,6.10
2022-11-16T23:11:43.037Z,6.38
2022-11-16T23:14:43.317Z,6.40
2022-11-16T23:17:36.790Z,6.70
2022-11-16T23:20:26.885Z,7.55
2022-11-16T23:23:23.002Z,7.55
2022-11-16T23:26:31.522Z,7.00
2022-11-16T23:29:17.731Z,7.90
2022-11-16T23:32:11.204Z,7.38
2022-11-16T23:35:03.854Z,7.05
2022-11-16T23:37:52.297Z,6.95
2022-11-16T23:40:30.917Z,7.90
2022-11-16T23:43:22.447Z,8.00
2022-11-16T23:46:15.454Z,8.20
2022-11-16T23:49:13.420Z,9.25
2022-11-16T23:51:58.958Z,8.00
2022-11-16T23:54:38.745Z,7.80
2022-11-16T23:57:39.256Z,9.60
